sensor_id;sensor_type;location;lat;lon;timestamp;P1;durP1;ratioP1;P2;durP2;ratioP2
41263;SDS011;26998;48.714;9.414;2024-02-21T00:00:05;13.35;;;8.18;;
41263;SDS011;26998;48.714;9.414;2024-02-21T00:02:33;14.98;;;8.02;;
41263;SDS011;26998;48.714;9.414;2024-02-21T00:04:59;13.57;;;7.80;;
41263;SDS011;26998;48.714;9.414;2024-02-21T00:07:26;14.05;;;8.88;;
41263;SDS011;26998;48.714;9.414;2024-02-21T00:09:53;13.13;;;8.35;;
41263;SDS011;26998;48.714;9.414;2024-02-21T00:12:19;13.85;;;8.43;;
41263;SDS011;26998;48.714;9.414;2024-02-21T00:14:46;12.48;;;7.93;;
41263;SDS011;26998;48.714;9.414;2024-02-21T00:17:13;11.10;;;7.82;;
41263;SDS011;26998;48.714;9.414;2024-02-21T00:19:39;15.13;;;8.20;;
41263;SDS011;26998;48.714;9.414;2024-02-21T00:22:06;14.32;;;8.20;;
41263;SDS011;26998;48.714;9.414;2024-02-21T00:24:33;15.52;;;8.43;;
41263;SDS011;26998;48.714;9.414;2024-02-21T00:27:00;16.25;;;9.10;;
41263;SDS011;26998;48.714;9.414;2024-02-21T00:29:26;14.00;;;8.15;;
41263;SDS011;26998;48.714;9.414;2024-02-21T00:31:53;15.93;;;8.32;;
41263;SDS011;26998;48.714;9.414;2024-02-21T00:34:20;16.15;;;8.90;;
41263;SDS011;26998;48.714;9.414;2024-02-21T00:36:47;16.40;;;9.17;;
41263;SDS011;26998;48.714;9.414;2024-02-21T00:39:13;16.83;;;8.98;;
41263;SDS011;26998;48.714;9.414;2024-02-21T00:41:40;17.73;;;9.10;;
41263;SDS011;26998;48.714;9.414;2024-02-21T00:44:07;15.48;;;9.20;;
41263;SDS011;26998;48.714;9.414;2024-02-21T00:46:33;16.27;;;9.25;;
41263;SDS011;26998;48.714;9.414;2024-02-21T00:49:00;15.13;;;8.50;;
41263;SDS011;26998;48.714;9.414;2024-02-21T00:51:27;14.38;;;9.20;;
41263;SDS011;26998;48.714;9.414;2024-02-21T00:53:53;16.00;;;9.65;;
41263;SDS011;26998;48.714;9.414;2024-02-21T00:56:21;17.00;;;9.40;;
41263;SDS011;26998;48.714;9.414;2024-02-21T00:58:48;16.45;;;9.45;;
41263;SDS011;26998;48.714;9.414;2024-02-21T01:01:20;18.05;;;9.63;;
41263;SDS011;26998;48.714;9.414;2024-02-21T01:03:51;20.15;;;9.73;;
41263;SDS011;26998;48.714;9.414;2024-02-21T01:06:20;15.40;;;9.45;;
41263;SDS011;26998;48.714;9.414;2024-02-21T01:08:47;14.95;;;9.65;;
41263;SDS011;26998;48.714;9.414;2024-02-21T01:11:14;14.30;;;9.02;;
41263;SDS011;26998;48.714;9.414;2024-02-21T01:13:42;16.45;;;10.73;;
41263;SDS011;26998;48.714;9.414;2024-02-21T01:16:09;15.80;;;9.43;;
41263;SDS011;26998;48.714;9.414;2024-02-21T01:18:39;14.95;;;9.93;;
41263;SDS011;26998;48.714;9.414;2024-02-21T01:21:07;15.38;;;8.60;;
41263;SDS011;26998;48.714;9.414;2024-02-21T01:23:34;18.55;;;9.98;;
41263;SDS011;26998;48.714;9.414;2024-02-21T01:26:01;16.10;;;9.65;;
41263;SDS011;26998;48.714;9.414;2024-02-21T01:28:29;16.83;;;9.80;;
41263;SDS011;26998;48.714;9.414;2024-02-21T01:30:57;15.97;;;9.27;;
41263;SDS011;26998;48.714;9.414;2024-02-21T01:33:23;17.08;;;10.32;;
41263;SDS011;26998;48.714;9.414;2024-02-21T01:35:50;16.50;;;10.10;;
41263;SDS011;26998;48.714;9.414;2024-02-21T01:38:17;11.82;;;8.88;;
41263;SDS011;26998;48.714;9.414;2024-02-21T01:40:44;18.17;;;9.65;;
41263;SDS011;26998;48.714;9.414;2024-02-21T01:43:15;16.60;;;9.68;;
41263;SDS011;26998;48.714;9.414;2024-02-21T01:45:46;14.27;;;9.10;;
41263;SDS011;26998;48.714;9.414;2024-02-21T01:48:17;15.38;;;9.35;;
41263;SDS011;26998;48.714;9.414;2024-02-21T01:50:45;14.55;;;8.90;;
41263;SDS011;26998;48.714;9.414;2024-02-21T01:53:16;18.38;;;9.32;;
41263;SDS011;26998;48.714;9.414;2024-02-21T01:55:47;18.67;;;9.35;;
41263;SDS011;26998;48.714;9.414;2024-02-21T01:58:14;15.93;;;9.18;;
41263;SDS011;26998;48.714;9.414;2024-02-21T02:00:42;18.27;;;8.80;;
41263;SDS011;26998;48.714;9.414;2024-02-21T02:03:10;12.30;;;8.20;;
41263;SDS011;26998;48.714;9.414;2024-02-21T02:05:47;13.25;;;8.38;;
41263;SDS011;26998;48.714;9.414;2024-02-21T02:08:15;12.75;;;7.93;;
41263;SDS011;26998;48.714;9.414;2024-02-21T02:10:43;16.00;;;8.82;;
41263;SDS011;26998;48.714;9.414;2024-02-21T02:13:11;17.83;;;9.00;;
41263;SDS011;26998;48.714;9.414;2024-02-21T02:18:09;14.20;;;7.93;;
41263;SDS011;26998;48.714;9.414;2024-02-21T02:20:36;16.83;;;7.97;;
41263;SDS011;26998;48.714;9.414;2024-02-21T02:23:06;13.98;;;7.57;;
41263;SDS011;26998;48.714;9.414;2024-02-21T02:25:35;14.80;;;7.80;;
41263;SDS011;26998;48.714;9.414;2024-02-21T02:28:06;13.55;;;7.45;;
41263;SDS011;26998;48.714;9.414;2024-02-21T02:30:34;13.48;;;7.18;;
41263;SDS011;26998;48.714;9.414;2024-02-21T02:33:05;15.38;;;7.40;;
41263;SDS011;26998;48.714;9.414;2024-02-21T02:35:32;14.80;;;7.80;;
41263;SDS011;26998;48.714;9.414;2024-02-21T02:37:59;16.10;;;8.18;;
41263;SDS011;26998;48.714;9.414;2024-02-21T02:40:26;13.23;;;7.68;;
41263;SDS011;26998;48.714;9.414;2024-02-21T02:42:52;15.63;;;7.43;;
41263;SDS011;26998;48.714;9.414;2024-02-21T02:45:22;15.43;;;8.05;;
41263;SDS011;26998;48.714;9.414;2024-02-21T02:47:50;14.35;;;7.63;;
41263;SDS011;26998;48.714;9.414;2024-02-21T02:50:16;14.52;;;7.47;;
41263;SDS011;26998;48.714;9.414;2024-02-21T02:52:43;12.05;;;6.68;;
41263;SDS011;26998;48.714;9.414;2024-02-21T02:55:10;13.82;;;7.30;;
41263;SDS011;26998;48.714;9.414;2024-02-21T02:57:37;11.40;;;6.90;;
41263;SDS011;26998;48.714;9.414;2024-02-21T03:00:04;14.48;;;7.45;;
41263;SDS011;26998;48.714;9.414;2024-02-21T03:02:33;12.95;;;7.10;;
41263;SDS011;26998;48.714;9.414;2024-02-21T03:05:00;15.05;;;7.55;;
41263;SDS011;26998;48.714;9.414;2024-02-21T03:07:26;15.90;;;7.63;;
41263;SDS011;26998;48.714;9.414;2024-02-21T03:09:53;12.13;;;7.43;;
41263;SDS011;26998;48.714;9.414;2024-02-21T03:12:21;13.38;;;7.00;;
41263;SDS011;26998;48.714;9.414;2024-02-21T03:14:53;12.38;;;7.05;;
41263;SDS011;26998;48.714;9.414;2024-02-21T03:17:23;10.88;;;6.90;;
41263;SDS011;26998;48.714;9.414;2024-02-21T03:19:51;13.48;;;7.30;;
41263;SDS011;26998;48.714;9.414;2024-02-21T03:22:19;15.02;;;7.90;;
41263;SDS011;26998;48.714;9.414;2024-02-21T03:24:45;15.82;;;8.65;;
41263;SDS011;26998;48.714;9.414;2024-02-21T03:27:12;14.70;;;7.97;;
41263;SDS011;26998;48.714;9.414;2024-02-21T03:29:39;13.40;;;8.50;;
41263;SDS011;26998;48.714;9.414;2024-02-21T03:32:05;13.80;;;9.15;;
41263;SDS011;26998;48.714;9.414;2024-02-21T03:34:32;18.92;;;9.15;;
41263;SDS011;26998;48.714;9.414;2024-02-21T03:36:58;16.13;;;8.87;;
41263;SDS011;26998;48.714;9.414;2024-02-21T03:39:25;15.80;;;9.52;;
41263;SDS011;26998;48.714;9.414;2024-02-21T03:41:52;13.38;;;8.40;;
41263;SDS011;26998;48.714;9.414;2024-02-21T03:44:19;16.40;;;9.65;;
41263;SDS011;26998;48.714;9.414;2024-02-21T03:46:45;15.88;;;9.07;;
41263;SDS011;26998;48.714;9.414;2024-02-21T03:49:12;14.03;;;8.83;;
41263;SDS011;26998;48.714;9.414;2024-02-21T03:51:39;16.95;;;9.80;;
41263;SDS011;26998;48.714;9.414;2024-02-21T03:54:05;19.02;;;9.75;;
41263;SDS011;26998;48.714;9.414;2024-02-21T03:56:32;15.90;;;9.75;;
41263;SDS011;26998;48.714;9.414;2024-02-21T03:58:58;16.63;;;8.98;;
41263;SDS011;26998;48.714;9.414;2024-02-21T04:01:25;15.43;;;9.13;;
41263;SDS011;26998;48.714;9.414;2024-02-21T04:03:54;13.67;;;8.87;;
41263;SDS011;26998;48.714;9.414;2024-02-21T04:06:20;17.65;;;9.52;;
41263;SDS011;26998;48.714;9.414;2024-02-21T04:08:47;17.37;;;9.90;;
41263;SDS011;26998;48.714;9.414;2024-02-21T04:11:14;18.83;;;9.57;;
41263;SDS011;26998;48.714;9.414;2024-02-21T04:13:40;15.93;;;9.25;;
41263;SDS011;26998;48.714;9.414;2024-02-21T04:16:07;16.93;;;8.83;;
41263;SDS011;26998;48.714;9.414;2024-02-21T04:18:34;16.60;;;8.57;;
41263;SDS011;26998;48.714;9.414;2024-02-21T04:21:01;15.10;;;9.15;;
41263;SDS011;26998;48.714;9.414;2024-02-21T04:23:27;13.55;;;9.32;;
41263;SDS011;26998;48.714;9.414;2024-02-21T04:25:54;17.98;;;9.90;;
41263;SDS011;26998;48.714;9.414;2024-02-21T04:28:21;19.35;;;10.45;;
41263;SDS011;26998;48.714;9.414;2024-02-21T04:30:47;16.55;;;9.32;;
41263;SDS011;26998;48.714;9.414;2024-02-21T04:33:14;15.20;;;9.27;;
41263;SDS011;26998;48.714;9.414;2024-02-21T04:35:41;16.90;;;9.73;;
41263;SDS011;26998;48.714;9.414;2024-02-21T04:38:07;15.07;;;9.93;;
41263;SDS011;26998;48.714;9.414;2024-02-21T04:40:34;16.83;;;8.77;;
41263;SDS011;26998;48.714;9.414;2024-02-21T04:43:01;13.90;;;9.23;;
41263;SDS011;26998;48.714;9.414;2024-02-21T04:45:28;16.38;;;10.38;;
41263;SDS011;26998;48.714;9.414;2024-02-21T04:47:54;17.05;;;9.75;;
41263;SDS011;26998;48.714;9.414;2024-02-21T04:50:21;16.70;;;9.02;;
41263;SDS011;26998;48.714;9.414;2024-02-21T04:52:48;14.77;;;9.27;;
41263;SDS011;26998;48.714;9.414;2024-02-21T04:55:15;16.63;;;10.30;;
41263;SDS011;26998;48.714;9.414;2024-02-21T04:57:41;16.75;;;9.65;;
41263;SDS011;26998;48.714;9.414;2024-02-21T05:00:08;15.80;;;9.77;;
41263;SDS011;26998;48.714;9.414;2024-02-21T05:02:35;19.35;;;11.05;;
41263;SDS011;26998;48.714;9.414;2024-02-21T05:05:02;18.83;;;10.93;;
41263;SDS011;26998;48.714;9.414;2024-02-21T05:07:29;17.17;;;9.80;;
41263;SDS011;26998;48.714;9.414;2024-02-21T05:09:55;16.85;;;10.07;;
41263;SDS011;26998;48.714;9.414;2024-02-21T05:12:22;16.52;;;10.73;;
41263;SDS011;26998;48.714;9.414;2024-02-21T05:14:49;15.00;;;9.55;;
41263;SDS011;26998;48.714;9.414;2024-02-21T05:17:15;23.35;;;11.63;;
41263;SDS011;26998;48.714;9.414;2024-02-21T05:19:42;14.15;;;9.88;;
41263;SDS011;26998;48.714;9.414;2024-02-21T05:22:08;19.60;;;10.65;;
41263;SDS011;26998;48.714;9.414;2024-02-21T05:24:35;16.88;;;9.55;;
41263;SDS011;26998;48.714;9.414;2024-02-21T05:27:02;17.85;;;10.32;;
41263;SDS011;26998;48.714;9.414;2024-02-21T05:29:29;13.40;;;9.18;;
41263;SDS011;26998;48.714;9.414;2024-02-21T05:31:56;16.90;;;9.35;;
41263;SDS011;26998;48.714;9.414;2024-02-21T05:34:26;20.10;;;10.52;;
41263;SDS011;26998;48.714;9.414;2024-02-21T05:36:53;17.88;;;9.20;;
41263;SDS011;26998;48.714;9.414;2024-02-21T05:39:20;16.20;;;8.23;;
41263;SDS011;26998;48.714;9.414;2024-02-21T05:41:49;14.45;;;8.10;;
41263;SDS011;26998;48.714;9.414;2024-02-21T05:44:18;15.25;;;8.48;;
41263;SDS011;26998;48.714;9.414;2024-02-21T05:46:46;14.27;;;8.38;;
41263;SDS011;26998;48.714;9.414;2024-02-21T05:49:12;14.95;;;9.07;;
41263;SDS011;26998;48.714;9.414;2024-02-21T05:51:39;16.63;;;10.50;;
41263;SDS011;26998;48.714;9.414;2024-02-21T05:54:05;19.58;;;11.13;;
41263;SDS011;26998;48.714;9.414;2024-02-21T05:56:33;20.70;;;11.63;;
41263;SDS011;26998;48.714;9.414;2024-02-21T05:59:00;17.67;;;10.40;;
41263;SDS011;26998;48.714;9.414;2024-02-21T06:01:27;17.15;;;10.80;;
41263;SDS011;26998;48.714;9.414;2024-02-21T06:03:54;17.02;;;10.15;;
41263;SDS011;26998;48.714;9.414;2024-02-21T06:06:21;22.80;;;11.38;;
41263;SDS011;26998;48.714;9.414;2024-02-21T06:08:51;19.13;;;11.77;;
41263;SDS011;26998;48.714;9.414;2024-02-21T06:11:18;19.70;;;10.68;;
41263;SDS011;26998;48.714;9.414;2024-02-21T06:13:45;17.73;;;10.95;;
41263;SDS011;26998;48.714;9.414;2024-02-21T06:16:11;18.52;;;10.82;;
41263;SDS011;26998;48.714;9.414;2024-02-21T06:18:38;18.70;;;10.65;;
41263;SDS011;26998;48.714;9.414;2024-02-21T06:21:05;19.23;;;11.85;;
41263;SDS011;26998;48.714;9.414;2024-02-21T06:23:31;17.40;;;10.15;;
41263;SDS011;26998;48.714;9.414;2024-02-21T06:25:58;17.60;;;10.70;;
41263;SDS011;26998;48.714;9.414;2024-02-21T06:28:25;25.67;;;11.45;;
41263;SDS011;26998;48.714;9.414;2024-02-21T06:30:52;18.25;;;11.05;;
41263;SDS011;26998;48.714;9.414;2024-02-21T06:33:18;19.00;;;11.73;;
41263;SDS011;26998;48.714;9.414;2024-02-21T06:35:49;18.02;;;11.60;;
41263;SDS011;26998;48.714;9.414;2024-02-21T06:38:18;21.83;;;12.15;;
41263;SDS011;26998;48.714;9.414;2024-02-21T06:40:46;21.75;;;11.95;;
41263;SDS011;26998;48.714;9.414;2024-02-21T06:43:17;17.65;;;11.63;;
41263;SDS011;26998;48.714;9.414;2024-02-21T06:45:45;20.88;;;11.68;;
41263;SDS011;26998;48.714;9.414;2024-02-21T06:48:17;21.17;;;11.18;;
41263;SDS011;26998;48.714;9.414;2024-02-21T06:50:46;15.18;;;10.32;;
41263;SDS011;26998;48.714;9.414;2024-02-21T06:53:13;18.50;;;12.07;;
41263;SDS011;26998;48.714;9.414;2024-02-21T06:55:39;19.27;;;12.47;;
41263;SDS011;26998;48.714;9.414;2024-02-21T06:58:06;20.42;;;12.20;;
41263;SDS011;26998;48.714;9.414;2024-02-21T07:00:38;21.67;;;11.80;;
41263;SDS011;26998;48.714;9.414;2024-02-21T07:03:05;24.00;;;12.57;;
41263;SDS011;26998;48.714;9.414;2024-02-21T07:05:32;19.87;;;11.00;;
41263;SDS011;26998;48.714;9.414;2024-02-21T07:07:59;15.75;;;10.02;;
41263;SDS011;26998;48.714;9.414;2024-02-21T07:10:27;29.08;;;16.27;;
41263;SDS011;26998;48.714;9.414;2024-02-21T07:12:55;29.05;;;17.10;;
41263;SDS011;26998;48.714;9.414;2024-02-21T07:15:22;27.02;;;14.50;;
41263;SDS011;26998;48.714;9.414;2024-02-21T07:17:48;26.17;;;15.95;;
41263;SDS011;26998;48.714;9.414;2024-02-21T07:20:15;21.83;;;12.50;;
41263;SDS011;26998;48.714;9.414;2024-02-21T07:22:42;20.58;;;10.35;;
41263;SDS011;26998;48.714;9.414;2024-02-21T07:25:08;18.63;;;10.40;;
41263;SDS011;26998;48.714;9.414;2024-02-21T07:27:35;20.30;;;10.88;;
41263;SDS011;26998;48.714;9.414;2024-02-21T07:30:02;23.95;;;14.85;;
41263;SDS011;26998;48.714;9.414;2024-02-21T07:32:28;24.02;;;13.30;;
41263;SDS011;26998;48.714;9.414;2024-02-21T07:34:55;18.65;;;11.95;;
41263;SDS011;26998;48.714;9.414;2024-02-21T07:37:22;24.02;;;11.45;;
41263;SDS011;26998;48.714;9.414;2024-02-21T07:39:48;18.20;;;12.07;;
41263;SDS011;26998;48.714;9.414;2024-02-21T07:42:15;21.25;;;11.50;;
41263;SDS011;26998;48.714;9.414;2024-02-21T07:44:42;25.65;;;14.18;;
41263;SDS011;26998;48.714;9.414;2024-02-21T07:47:08;19.90;;;12.45;;
41263;SDS011;26998;48.714;9.414;2024-02-21T07:49:45;18.15;;;11.65;;
41263;SDS011;26998;48.714;9.414;2024-02-21T07:52:12;24.27;;;15.15;;
41263;SDS011;26998;48.714;9.414;2024-02-21T07:54:39;21.97;;;9.83;;
41263;SDS011;26998;48.714;9.414;2024-02-21T07:57:06;16.23;;;8.45;;
41263;SDS011;26998;48.714;9.414;2024-02-21T07:59:33;19.48;;;10.95;;
41263;SDS011;26998;48.714;9.414;2024-02-21T08:02:00;19.25;;;9.48;;
41263;SDS011;26998;48.714;9.414;2024-02-21T08:04:27;15.93;;;10.00;;
41263;SDS011;26998;48.714;9.414;2024-02-21T08:06:54;14.07;;;8.43;;
41263;SDS011;26998;48.714;9.414;2024-02-21T08:09:27;16.02;;;9.82;;
41263;SDS011;26998;48.714;9.414;2024-02-21T08:11:54;18.27;;;9.43;;
41263;SDS011;26998;48.714;9.414;2024-02-21T08:14:21;14.30;;;7.53;;
41263;SDS011;26998;48.714;9.414;2024-02-21T08:16:48;15.77;;;9.30;;
41263;SDS011;26998;48.714;9.414;2024-02-21T08:19:15;13.82;;;7.15;;
41263;SDS011;26998;48.714;9.414;2024-02-21T08:21:42;12.33;;;6.80;;
41263;SDS011;26998;48.714;9.414;2024-02-21T08:24:09;13.02;;;6.32;;
41263;SDS011;26998;48.714;9.414;2024-02-21T08:26:39;12.50;;;6.38;;
41263;SDS011;26998;48.714;9.414;2024-02-21T08:29:11;10.38;;;6.65;;
41263;SDS011;26998;48.714;9.414;2024-02-21T08:31:38;11.45;;;6.15;;
41263;SDS011;26998;48.714;9.414;2024-02-21T08:34:05;11.07;;;5.63;;
41263;SDS011;26998;48.714;9.414;2024-02-21T08:36:35;10.85;;;5.43;;
41263;SDS011;26998;48.714;9.414;2024-02-21T08:39:03;13.15;;;5.95;;
41263;SDS011;26998;48.714;9.414;2024-02-21T08:41:31;9.93;;;5.13;;
41263;SDS011;26998;48.714;9.414;2024-02-21T08:44:17;9.57;;;5.22;;
41263;SDS011;26998;48.714;9.414;2024-02-21T08:46:44;14.20;;;6.22;;
41263;SDS011;26998;48.714;9.414;2024-02-21T08:49:10;19.98;;;7.82;;
41263;SDS011;26998;48.714;9.414;2024-02-21T08:51:37;22.05;;;7.80;;
41263;SDS011;26998;48.714;9.414;2024-02-21T08:54:04;20.55;;;8.45;;
41263;SDS011;26998;48.714;9.414;2024-02-21T08:56:31;18.70;;;6.38;;
41263;SDS011;26998;48.714;9.414;2024-02-21T08:58:58;13.32;;;5.72;;
41263;SDS011;26998;48.714;9.414;2024-02-21T09:01:25;11.07;;;5.53;;
41263;SDS011;26998;48.714;9.414;2024-02-21T09:03:53;11.52;;;4.90;;
41263;SDS011;26998;48.714;9.414;2024-02-21T09:06:20;12.20;;;5.53;;
41263;SDS011;26998;48.714;9.414;2024-02-21T09:08:48;10.73;;;5.32;;
41263;SDS011;26998;48.714;9.414;2024-02-21T09:11:16;13.65;;;5.60;;
41263;SDS011;26998;48.714;9.414;2024-02-21T09:13:43;15.47;;;6.80;;
41263;SDS011;26998;48.714;9.414;2024-02-21T09:16:09;20.15;;;7.05;;
41263;SDS011;26998;48.714;9.414;2024-02-21T09:18:36;10.43;;;5.68;;
41263;SDS011;26998;48.714;9.414;2024-02-21T09:21:03;11.48;;;5.13;;
41263;SDS011;26998;48.714;9.414;2024-02-21T09:23:30;16.70;;;6.87;;
41263;SDS011;26998;48.714;9.414;2024-02-21T09:25:58;21.38;;;7.43;;
41263;SDS011;26998;48.714;9.414;2024-02-21T09:28:27;20.13;;;7.35;;
41263;SDS011;26998;48.714;9.414;2024-02-21T09:30:54;11.70;;;5.18;;
41263;SDS011;26998;48.714;9.414;2024-02-21T09:33:21;15.77;;;6.57;;
41263;SDS011;26998;48.714;9.414;2024-02-21T09:35:57;17.73;;;6.70;;
41263;SDS011;26998;48.714;9.414;2024-02-21T09:38:24;21.58;;;8.07;;
41263;SDS011;26998;48.714;9.414;2024-02-21T09:41:00;19.90;;;7.40;;
41263;SDS011;26998;48.714;9.414;2024-02-21T09:43:50;23.30;;;8.13;;
41263;SDS011;26998;48.714;9.414;2024-02-21T09:46:21;18.90;;;7.63;;
41263;SDS011;26998;48.714;9.414;2024-02-21T09:49:05;18.58;;;6.95;;
41263;SDS011;26998;48.714;9.414;2024-02-21T09:51:35;14.60;;;6.40;;
41263;SDS011;26998;48.714;9.414;2024-02-21T09:54:04;23.83;;;6.87;;
41263;SDS011;26998;48.714;9.414;2024-02-21T09:56:41;11.73;;;5.47;;
41263;SDS011;26998;48.714;9.414;2024-02-21T09:59:08;16.70;;;7.20;;
41263;SDS011;26998;48.714;9.414;2024-02-21T10:01:36;18.63;;;7.07;;
41263;SDS011;26998;48.714;9.414;2024-02-21T10:04:03;15.80;;;7.70;;
41263;SDS011;26998;48.714;9.414;2024-02-21T10:06:31;18.02;;;7.13;;
41263;SDS011;26998;48.714;9.414;2024-02-21T10:08:59;11.82;;;4.88;;
41263;SDS011;26998;48.714;9.414;2024-02-21T10:11:25;16.70;;;6.43;;
41263;SDS011;26998;48.714;9.414;2024-02-21T10:14:02;14.35;;;6.60;;
41263;SDS011;26998;48.714;9.414;2024-02-21T10:16:35;14.32;;;6.40;;
41263;SDS011;26998;48.714;9.414;2024-02-21T10:19:04;21.67;;;6.32;;
41263;SDS011;26998;48.714;9.414;2024-02-21T10:21:31;13.90;;;5.43;;
41263;SDS011;26998;48.714;9.414;2024-02-21T10:23:57;12.50;;;4.83;;
41263;SDS011;26998;48.714;9.414;2024-02-21T10:26:24;10.57;;;4.20;;
41263;SDS011;26998;48.714;9.414;2024-02-21T10:28:51;11.07;;;4.47;;
41263;SDS011;26998;48.714;9.414;2024-02-21T10:31:22;9.90;;;4.22;;
41263;SDS011;26998;48.714;9.414;2024-02-21T10:33:57;10.90;;;4.05;;
41263;SDS011;26998;48.714;9.414;2024-02-21T10:36:29;8.02;;;2.95;;
41263;SDS011;26998;48.714;9.414;2024-02-21T10:38:56;5.30;;;2.60;;
41263;SDS011;26998;48.714;9.414;2024-02-21T10:41:23;9.30;;;3.15;;
41263;SDS011;26998;48.714;9.414;2024-02-21T10:43:51;7.07;;;2.70;;
41263;SDS011;26998;48.714;9.414;2024-02-21T10:46:22;6.18;;;2.60;;
41263;SDS011;26998;48.714;9.414;2024-02-21T10:48:55;7.57;;;2.80;;
41263;SDS011;26998;48.714;9.414;2024-02-21T10:51:34;6.50;;;2.47;;
41263;SDS011;26998;48.714;9.414;2024-02-21T10:54:13;8.23;;;2.60;;
41263;SDS011;26998;48.714;9.414;2024-02-21T10:56:51;8.48;;;2.70;;
41263;SDS011;26998;48.714;9.414;2024-02-21T10:59:19;4.85;;;2.50;;
41263;SDS011;26998;48.714;9.414;2024-02-21T11:01:47;7.65;;;2.88;;
41263;SDS011;26998;48.714;9.414;2024-02-21T11:04:14;5.13;;;2.70;;
41263;SDS011;26998;48.714;9.414;2024-02-21T11:06:41;8.55;;;2.60;;
41263;SDS011;26998;48.714;9.414;2024-02-21T11:09:10;5.27;;;2.47;;
41263;SDS011;26998;48.714;9.414;2024-02-21T11:11:38;5.78;;;2.72;;
41263;SDS011;26998;48.714;9.414;2024-02-21T11:14:08;6.90;;;2.45;;
41263;SDS011;26998;48.714;9.414;2024-02-21T11:16:39;6.97;;;2.70;;
41263;SDS011;26998;48.714;9.414;2024-02-21T11:19:20;7.50;;;2.70;;
41263;SDS011;26998;48.714;9.414;2024-02-21T11:21:52;7.47;;;2.35;;
41263;SDS011;26998;48.714;9.414;2024-02-21T11:26:56;5.45;;;2.28;;
41263;SDS011;26998;48.714;9.414;2024-02-21T11:29:48;4.20;;;2.15;;
41263;SDS011;26998;48.714;9.414;2024-02-21T11:32:19;5.38;;;2.63;;
41263;SDS011;26998;48.714;9.414;2024-02-21T11:37:34;6.53;;;2.50;;
41263;SDS011;26998;48.714;9.414;2024-02-21T11:40:09;6.10;;;2.75;;
41263;SDS011;26998;48.714;9.414;2024-02-21T11:42:38;5.07;;;2.27;;
41263;SDS011;26998;48.714;9.414;2024-02-21T11:45:06;5.78;;;2.67;;
41263;SDS011;26998;48.714;9.414;2024-02-21T11:47:34;8.63;;;2.90;;
41263;SDS011;26998;48.714;9.414;2024-02-21T11:50:01;4.40;;;2.13;;
41263;SDS011;26998;48.714;9.414;2024-02-21T11:52:28;3.13;;;1.88;;
41263;SDS011;26998;48.714;9.414;2024-02-21T11:54:55;3.88;;;2.10;;
41263;SDS011;26998;48.714;9.414;2024-02-21T11:57:24;5.05;;;2.47;;
41263;SDS011;26998;48.714;9.414;2024-02-21T11:59:51;6.13;;;2.30;;
41263;SDS011;26998;48.714;9.414;2024-02-21T12:02:25;4.47;;;1.83;;
41263;SDS011;26998;48.714;9.414;2024-02-21T12:04:52;5.63;;;2.60;;
41263;SDS011;26998;48.714;9.414;2024-02-21T12:07:21;6.10;;;2.40;;
41263;SDS011;26998;48.714;9.414;2024-02-21T12:09:51;6.75;;;2.47;;
41263;SDS011;26998;48.714;9.414;2024-02-21T12:12:19;4.80;;;2.15;;
41263;SDS011;26998;48.714;9.414;2024-02-21T12:14:47;6.68;;;2.63;;
41263;SDS011;26998;48.714;9.414;2024-02-21T12:17:21;5.38;;;2.10;;
41263;SDS011;26998;48.714;9.414;2024-02-21T12:19:50;6.22;;;2.63;;
41263;SDS011;26998;48.714;9.414;2024-02-21T12:22:20;6.20;;;2.20;;
41263;SDS011;26998;48.714;9.414;2024-02-21T12:24:47;6.68;;;2.80;;
41263;SDS011;26998;48.714;9.414;2024-02-21T12:27:15;5.13;;;2.03;;
41263;SDS011;26998;48.714;9.414;2024-02-21T12:29:41;3.90;;;1.90;;
41263;SDS011;26998;48.714;9.414;2024-02-21T12:32:08;5.00;;;2.20;;
41263;SDS011;26998;48.714;9.414;2024-02-21T12:34:35;9.90;;;2.87;;
41263;SDS011;26998;48.714;9.414;2024-02-21T12:37:18;6.93;;;2.15;;
41263;SDS011;26998;48.714;9.414;2024-02-21T12:39:47;3.78;;;1.50;;
41263;SDS011;26998;48.714;9.414;2024-02-21T12:42:14;3.38;;;1.90;;
41263;SDS011;26998;48.714;9.414;2024-02-21T12:44:40;3.63;;;1.92;;
41263;SDS011;26998;48.714;9.414;2024-02-21T12:47:08;3.75;;;1.67;;
41263;SDS011;26998;48.714;9.414;2024-02-21T12:49:35;4.95;;;1.83;;
41263;SDS011;26998;48.714;9.414;2024-02-21T12:52:02;3.95;;;2.03;;
41263;SDS011;26998;48.714;9.414;2024-02-21T12:54:30;5.18;;;2.00;;
41263;SDS011;26998;48.714;9.414;2024-02-21T12:56:57;3.50;;;2.08;;
41263;SDS011;26998;48.714;9.414;2024-02-21T12:59:24;4.63;;;1.92;;
41263;SDS011;26998;48.714;9.414;2024-02-21T13:01:52;5.80;;;2.50;;
41263;SDS011;26998;48.714;9.414;2024-02-21T13:04:19;3.78;;;1.95;;
41263;SDS011;26998;48.714;9.414;2024-02-21T13:06:46;2.92;;;1.85;;
41263;SDS011;26998;48.714;9.414;2024-02-21T13:09:12;5.30;;;1.90;;
41263;SDS011;26998;48.714;9.414;2024-02-21T13:11:40;5.45;;;2.00;;
41263;SDS011;26998;48.714;9.414;2024-02-21T13:14:07;5.67;;;1.93;;
41263;SDS011;26998;48.714;9.414;2024-02-21T13:16:34;3.40;;;1.50;;
41263;SDS011;26998;48.714;9.414;2024-02-21T13:19:06;4.65;;;1.73;;
41263;SDS011;26998;48.714;9.414;2024-02-21T13:21:35;5.47;;;2.00;;
41263;SDS011;26998;48.714;9.414;2024-02-21T13:24:02;4.38;;;1.73;;
41263;SDS011;26998;48.714;9.414;2024-02-21T13:26:29;3.00;;;1.60;;
41263;SDS011;26998;48.714;9.414;2024-02-21T13:28:56;3.70;;;1.92;;
41263;SDS011;26998;48.714;9.414;2024-02-21T13:31:22;3.05;;;1.50;;
41263;SDS011;26998;48.714;9.414;2024-02-21T13:33:50;4.45;;;1.95;;
41263;SDS011;26998;48.714;9.414;2024-02-21T13:36:17;3.20;;;1.77;;
41263;SDS011;26998;48.714;9.414;2024-02-21T13:38:44;4.72;;;2.20;;
41263;SDS011;26998;48.714;9.414;2024-02-21T13:41:11;5.22;;;2.13;;
41263;SDS011;26998;48.714;9.414;2024-02-21T13:43:38;5.75;;;2.38;;
41263;SDS011;26998;48.714;9.414;2024-02-21T13:46:05;4.75;;;2.10;;
41263;SDS011;26998;48.714;9.414;2024-02-21T13:48:36;5.40;;;2.35;;
41263;SDS011;26998;48.714;9.414;2024-02-21T13:51:03;5.50;;;2.17;;
41263;SDS011;26998;48.714;9.414;2024-02-21T13:53:30;5.18;;;2.22;;
41263;SDS011;26998;48.714;9.414;2024-02-21T13:55:57;6.80;;;2.22;;
41263;SDS011;26998;48.714;9.414;2024-02-21T13:58:24;6.43;;;2.28;;
41263;SDS011;26998;48.714;9.414;2024-02-21T14:00:53;5.20;;;2.17;;
41263;SDS011;26998;48.714;9.414;2024-02-21T14:03:20;6.68;;;2.35;;
41263;SDS011;26998;48.714;9.414;2024-02-21T14:05:47;4.60;;;2.40;;
41263;SDS011;26998;48.714;9.414;2024-02-21T14:08:15;5.70;;;2.10;;
41263;SDS011;26998;48.714;9.414;2024-02-21T14:10:42;4.60;;;2.28;;
41263;SDS011;26998;48.714;9.414;2024-02-21T14:13:09;6.05;;;2.40;;
41263;SDS011;26998;48.714;9.414;2024-02-21T14:15:36;4.50;;;2.33;;
41263;SDS011;26998;48.714;9.414;2024-02-21T14:18:04;4.40;;;2.20;;
41263;SDS011;26998;48.714;9.414;2024-02-21T14:20:35;2.42;;;1.48;;
41263;SDS011;26998;48.714;9.414;2024-02-21T14:23:03;3.77;;;1.63;;
41263;SDS011;26998;48.714;9.414;2024-02-21T14:25:31;4.93;;;1.80;;
41263;SDS011;26998;48.714;9.414;2024-02-21T14:27:59;5.88;;;2.10;;
41263;SDS011;26998;48.714;9.414;2024-02-21T14:30:27;3.63;;;2.33;;
41263;SDS011;26998;48.714;9.414;2024-02-21T14:32:54;4.80;;;1.90;;
41263;SDS011;26998;48.714;9.414;2024-02-21T14:35:21;5.25;;;2.22;;
41263;SDS011;26998;48.714;9.414;2024-02-21T14:37:48;5.40;;;2.20;;
41263;SDS011;26998;48.714;9.414;2024-02-21T14:40:15;3.35;;;2.20;;
41263;SDS011;26998;48.714;9.414;2024-02-21T14:42:42;5.85;;;2.50;;
41263;SDS011;26998;48.714;9.414;2024-02-21T14:45:09;7.00;;;2.55;;
41263;SDS011;26998;48.714;9.414;2024-02-21T14:47:36;3.58;;;2.40;;